Strathcona, Minnesota
Current Conditions -  °F | °C
As of 7:34 AM on Friday 24 Oct 2014 (Local Time) from KROX Reporting Station
Clear Clear  
Wind Chill: 43°   Ceiling: Unl
Heat Index: 46°   Visibility: 10mi
Dew Point: 39°   Wind: 7mph
Humidity: 76%   Direction: 190°S
Pressure: 29.72"   Gusts: NA
Location:  48.55°N, 96.17°W
Report Text: KROX 241234Z AUTO 19006KT 10SM CLR 08/04 A2972 RMK AO2
Loading
Personal Weather Stations






























Interactive Weather Map
Tropical Storm Tracking
New forecast layout! Learn more

10-Day Weather Forecast

Advertisements
Track Severe Weather on mobile